• Join FlightAware (Why Join?)
  • Login
  • US Flag 
02:46AM EDT


 

Airport Tracker/Info


-or-


 

Live Flight TrackerFlight Track Log ✈ N700QA ✈ 11-Nov-2013 ✈ KLAX - KONT

Flight Track Log - Related Links

Times and Time Zones

All times are in EST time to prevent confusion due to time zone crossing. See the N700QA flight status page for this flight to view local times or setup timezone preferences in your user account.

Time Position Orientation Groundspeed Altitude Reporting Facility
EST Latitude Longitude Course Direction KTS MPH feet Rate Location/Type
06:00PM 33.9167 -118.4667 68° East 213 245 2,800  Level Southern California TRACON
06:01PM 33.8667 -118.5167 220° Southwest 262 302 4,500 2,100 Climbing Southern California TRACON
06:02PM 33.7833 -118.5333 189° South 264 304 6,800 2,160 Climbing Southern California TRACON
06:03PM 33.7167 -118.5167 168° South 271 312 8,900 1,500 Climbing Southern California TRACON
06:04PM 33.7064 -118.5047 136° Southeast 269 310 9,100 60 Climbing Los Angeles Center
06:05PM 33.6517 -118.4244 129° Southeast 268 308 9,000 -60 Descending Los Angeles Center
06:06PM 34.0038 -117.9774 68° East  Level Estimated
06:06PM 33.6439 -118.3267 95° East 272 313 9,000  Level Los Angeles Center
06:07PM 33.6847 -118.2517 57° Northeast 276 318 9,000  Level Los Angeles Center
06:08PM 33.7242 -118.1739 59° Northeast 277 319 9,000  Level Los Angeles Center
06:09PM 33.7656 -118.0944 58° Northeast 280 322 9,000  Level Los Angeles Center
06:10PM 33.7900 -117.9883 74° East 283 326 9,000 -300 Level Los Angeles Center
06:11PM 33.8225 -117.9036 65° Northeast 282 325 8,500 -660 Descending Los Angeles Center
06:12PM 33.8486 -117.8206 69° East 275 316 7,700 -720 Descending Los Angeles Center
06:13PM 33.8689 -117.7317 75° East 273 314 7,000 -720 Descending Los Angeles Center
06:14PM 33.8914 -117.6444 73° East 274 315 6,300 -540 Descending Los Angeles Center
06:15PM 33.9086 -117.5778 73° East 267 307 5,900 -600 Descending Los Angeles Center
06:16PM 33.9678 -117.4753 55° Northeast 268 308 5,100 -540 Descending Los Angeles Center
06:17PM 34.0000 -117.4000 63° Northeast 215 247 4,800 -480 Descending Southern California TRACON
06:18PM 34.0500 -117.4333 331° Northwest 217 250 4,200 -1,020 Descending Southern California TRACON
06:19PM 34.0500 -117.5167 270° West 181 208 2,700 -1,380 Descending Southern California TRACON
06:20PM 34.0500 -117.5667 270° West 147 169 1,400 -1,320 Descending Southern California TRACON